Prostejov, Czech Republic
Current Conditions -  °F | °C
As of 6:00 AM on Monday 22 Dec 2014 (Local Time) from LKTB Reporting Station
Overcast Overcast  
Wind Chill: 35°   Ceiling: 3500
Heat Index: 41°   Visibility: 6mi
Dew Point: 34°   Wind: 10mph
Humidity: 76%   Direction: 230°SW
Pressure: 30.12"   Gusts: NA
Location:  49.48°N, 17.12°E
Report Text: LKTB 220400Z 23009KT 9999 OVC035 05/01 Q1020 NOSIG
Loading
Personal Weather Stations






























Interactive Weather Map New forecast layout! Learn more

10-Day Weather Forecast

Advertisements
Track Severe Weather on mobile